Terminal Aerodrome Forecast
Issued by NWS

Home | Current Version | Previous Version | Graphics & Text | Print | Product List | Glossary On
Versions: 1 2 3 4 5 6 7 8 9 10 11 12 13 14
000
FTUS43 KABR 261700
TAFPIR
TAF
KPIR 261731Z 2618/2718 35014G21KT P6SM SKC
     FM270100 32010KT P6SM SKC
     FM271400 32015G25KT P6SM SCT050=

USA.gov is the U.S. government's official web portal to all federal, state and local government web resources and services.